sensor_id;sensor_type;location;lat;lon;timestamp;P1;durP1;ratioP1;P2;durP2;ratioP2
4630;SDS011;2328;48.170;11.602;2023-10-08T00:01:53;3.00;;;1.07;;
4630;SDS011;2328;48.170;11.602;2023-10-08T01:30:11;1.67;;;1.07;;
4630;SDS011;2328;48.170;11.602;2023-10-08T01:32:44;1.50;;;1.00;;
4630;SDS011;2328;48.170;11.602;2023-10-08T01:35:21;3.13;;;1.23;;
4630;SDS011;2328;48.170;11.602;2023-10-08T01:37:52;2.27;;;1.50;;
4630;SDS011;2328;48.170;11.602;2023-10-08T01:40:23;3.43;;;1.53;;
4630;SDS011;2328;48.170;11.602;2023-10-08T01:42:56;1.37;;;1.20;;
4630;SDS011;2328;48.170;11.602;2023-10-08T01:48:27;5.33;;;1.27;;
4630;SDS011;2328;48.170;11.602;2023-10-08T01:51:03;2.60;;;1.40;;
4630;SDS011;2328;48.170;11.602;2023-10-08T01:53:39;3.10;;;1.33;;
4630;SDS011;2328;48.170;11.602;2023-10-08T01:56:09;6.00;;;1.13;;
4630;SDS011;2328;48.170;11.602;2023-10-08T01:58:37;2.20;;;1.10;;
4630;SDS011;2328;48.170;11.602;2023-10-08T02:01:06;2.43;;;1.03;;
4630;SDS011;2328;48.170;11.602;2023-10-08T02:03:41;2.60;;;1.30;;
4630;SDS011;2328;48.170;11.602;2023-10-08T02:06:12;1.53;;;1.10;;
4630;SDS011;2328;48.170;11.602;2023-10-08T02:08:41;1.70;;;0.97;;
4630;SDS011;2328;48.170;11.602;2023-10-08T02:11:24;2.27;;;1.23;;
4630;SDS011;2328;48.170;11.602;2023-10-08T02:13:54;3.33;;;1.33;;
4630;SDS011;2328;48.170;11.602;2023-10-08T02:16:25;1.50;;;1.40;;
4630;SDS011;2328;48.170;11.602;2023-10-08T02:18:55;2.60;;;1.40;;
4630;SDS011;2328;48.170;11.602;2023-10-08T02:21:26;2.10;;;1.60;;
4630;SDS011;2328;48.170;11.602;2023-10-08T02:23:56;2.60;;;1.17;;
4630;SDS011;2328;48.170;11.602;2023-10-08T02:26:26;4.73;;;1.17;;
4630;SDS011;2328;48.170;11.602;2023-10-08T02:28:59;7.40;;;1.50;;
4630;SDS011;2328;48.170;11.602;2023-10-08T02:31:30;5.13;;;1.60;;
4630;SDS011;2328;48.170;11.602;2023-10-08T02:34:01;2.30;;;1.17;;
4630;SDS011;2328;48.170;11.602;2023-10-08T02:36:35;2.03;;;1.43;;
4630;SDS011;2328;48.170;11.602;2023-10-08T02:39:06;6.93;;;1.60;;
4630;SDS011;2328;48.170;11.602;2023-10-08T02:41:40;1.53;;;0.87;;
4630;SDS011;2328;48.170;11.602;2023-10-08T02:44:12;3.40;;;1.50;;
4630;SDS011;2328;48.170;11.602;2023-10-08T02:46:42;1.90;;;1.13;;
4630;SDS011;2328;48.170;11.602;2023-10-08T02:49:16;1.23;;;1.13;;
4630;SDS011;2328;48.170;11.602;2023-10-08T02:51:47;3.53;;;1.37;;
4630;SDS011;2328;48.170;11.602;2023-10-08T02:54:17;2.20;;;1.23;;
4630;SDS011;2328;48.170;11.602;2023-10-08T02:56:48;1.90;;;1.60;;
4630;SDS011;2328;48.170;11.602;2023-10-08T02:59:31;1.83;;;1.20;;
4630;SDS011;2328;48.170;11.602;2023-10-08T03:02:06;2.13;;;1.80;;
4630;SDS011;2328;48.170;11.602;2023-10-08T03:04:42;1.17;;;1.00;;
4630;SDS011;2328;48.170;11.602;2023-10-08T03:07:12;2.30;;;1.10;;
4630;SDS011;2328;48.170;11.602;2023-10-08T03:09:59;1.97;;;1.10;;
4630;SDS011;2328;48.170;11.602;2023-10-08T03:12:33;2.77;;;1.17;;
4630;SDS011;2328;48.170;11.602;2023-10-08T03:15:04;3.33;;;1.67;;
4630;SDS011;2328;48.170;11.602;2023-10-08T03:17:54;1.33;;;1.20;;
4630;SDS011;2328;48.170;11.602;2023-10-08T03:20:26;2.43;;;1.20;;
4630;SDS011;2328;48.170;11.602;2023-10-08T03:23:05;4.03;;;1.27;;
4630;SDS011;2328;48.170;11.602;2023-10-08T03:25:40;7.23;;;1.60;;
4630;SDS011;2328;48.170;11.602;2023-10-08T03:28:12;2.60;;;1.07;;
4630;SDS011;2328;48.170;11.602;2023-10-08T03:30:43;3.13;;;1.13;;
4630;SDS011;2328;48.170;11.602;2023-10-08T03:33:18;2.23;;;1.10;;
4630;SDS011;2328;48.170;11.602;2023-10-08T03:35:52;2.87;;;1.13;;
4630;SDS011;2328;48.170;11.602;2023-10-08T03:38:23;3.50;;;1.80;;
4630;SDS011;2328;48.170;11.602;2023-10-08T03:41:11;3.50;;;0.90;;
4630;SDS011;2328;48.170;11.602;2023-10-08T03:43:44;1.70;;;1.00;;
4630;SDS011;2328;48.170;11.602;2023-10-08T03:46:20;2.43;;;1.33;;
4630;SDS011;2328;48.170;11.602;2023-10-08T03:48:50;1.97;;;1.03;;
4630;SDS011;2328;48.170;11.602;2023-10-08T03:51:28;1.57;;;1.03;;
4630;SDS011;2328;48.170;11.602;2023-10-08T03:54:07;1.67;;;1.13;;
4630;SDS011;2328;48.170;11.602;2023-10-08T03:56:45;3.90;;;0.90;;
4630;SDS011;2328;48.170;11.602;2023-10-08T03:59:15;3.33;;;1.40;;
4630;SDS011;2328;48.170;11.602;2023-10-08T04:01:57;2.20;;;1.17;;
4630;SDS011;2328;48.170;11.602;2023-10-08T04:04:40;4.97;;;1.13;;
4630;SDS011;2328;48.170;11.602;2023-10-08T04:07:25;3.23;;;1.17;;
4630;SDS011;2328;48.170;11.602;2023-10-08T04:10:06;3.00;;;0.97;;
4630;SDS011;2328;48.170;11.602;2023-10-08T04:13:06;2.87;;;1.00;;
4630;SDS011;2328;48.170;11.602;2023-10-08T04:15:36;7.70;;;1.33;;
4630;SDS011;2328;48.170;11.602;2023-10-08T04:18:11;2.03;;;0.70;;
4630;SDS011;2328;48.170;11.602;2023-10-08T04:20:41;4.83;;;1.30;;
4630;SDS011;2328;48.170;11.602;2023-10-08T04:23:36;3.10;;;1.40;;
4630;SDS011;2328;48.170;11.602;2023-10-08T04:26:05;2.00;;;1.00;;
4630;SDS011;2328;48.170;11.602;2023-10-08T04:28:36;3.03;;;1.03;;
4630;SDS011;2328;48.170;11.602;2023-10-08T04:31:10;3.27;;;1.07;;
4630;SDS011;2328;48.170;11.602;2023-10-08T04:33:51;2.63;;;1.27;;
4630;SDS011;2328;48.170;11.602;2023-10-08T04:36:22;2.37;;;0.90;;
4630;SDS011;2328;48.170;11.602;2023-10-08T04:38:53;4.53;;;1.40;;
4630;SDS011;2328;48.170;11.602;2023-10-08T04:41:29;2.23;;;1.30;;
4630;SDS011;2328;48.170;11.602;2023-10-08T04:44:00;1.27;;;0.90;;
4630;SDS011;2328;48.170;11.602;2023-10-08T04:46:36;4.27;;;1.33;;
4630;SDS011;2328;48.170;11.602;2023-10-08T04:49:14;3.70;;;1.60;;
4630;SDS011;2328;48.170;11.602;2023-10-08T04:51:56;2.60;;;0.97;;
4630;SDS011;2328;48.170;11.602;2023-10-08T04:54:27;0.87;;;0.60;;
4630;SDS011;2328;48.170;11.602;2023-10-08T04:56:58;4.90;;;1.13;;
4630;SDS011;2328;48.170;11.602;2023-10-08T04:59:29;1.67;;;0.83;;
4630;SDS011;2328;48.170;11.602;2023-10-08T05:02:02;3.20;;;2.23;;
4630;SDS011;2328;48.170;11.602;2023-10-08T05:04:49;3.67;;;1.40;;
4630;SDS011;2328;48.170;11.602;2023-10-08T05:07:44;2.00;;;0.90;;
4630;SDS011;2328;48.170;11.602;2023-10-08T05:10:46;3.53;;;1.37;;
4630;SDS011;2328;48.170;11.602;2023-10-08T05:13:42;1.30;;;1.00;;
4630;SDS011;2328;48.170;11.602;2023-10-08T05:16:29;2.37;;;0.80;;
4630;SDS011;2328;48.170;11.602;2023-10-08T05:19:03;2.13;;;0.90;;
4630;SDS011;2328;48.170;11.602;2023-10-08T05:21:51;2.00;;;1.10;;
4630;SDS011;2328;48.170;11.602;2023-10-08T05:24:32;2.27;;;1.37;;
4630;SDS011;2328;48.170;11.602;2023-10-08T05:27:08;4.07;;;1.30;;
4630;SDS011;2328;48.170;11.602;2023-10-08T05:30:05;3.10;;;1.43;;
4630;SDS011;2328;48.170;11.602;2023-10-08T05:32:52;2.00;;;1.20;;
4630;SDS011;2328;48.170;11.602;2023-10-08T05:35:47;3.87;;;1.00;;
4630;SDS011;2328;48.170;11.602;2023-10-08T05:38:22;4.80;;;1.10;;
4630;SDS011;2328;48.170;11.602;2023-10-08T05:40:57;2.57;;;1.40;;
4630;SDS011;2328;48.170;11.602;2023-10-08T05:43:45;5.97;;;1.77;;
4630;SDS011;2328;48.170;11.602;2023-10-08T05:46:22;4.87;;;1.10;;
4630;SDS011;2328;48.170;11.602;2023-10-08T05:49:08;3.77;;;1.23;;
4630;SDS011;2328;48.170;11.602;2023-10-08T05:51:53;2.80;;;1.10;;
4630;SDS011;2328;48.170;11.602;2023-10-08T05:54:42;2.23;;;0.90;;
4630;SDS011;2328;48.170;11.602;2023-10-08T05:57:35;3.50;;;1.07;;
4630;SDS011;2328;48.170;11.602;2023-10-08T06:00:13;4.60;;;1.60;;
4630;SDS011;2328;48.170;11.602;2023-10-08T06:03:13;2.37;;;1.33;;
4630;SDS011;2328;48.170;11.602;2023-10-08T06:06:00;4.07;;;1.73;;
4630;SDS011;2328;48.170;11.602;2023-10-08T06:08:45;2.43;;;1.13;;
4630;SDS011;2328;48.170;11.602;2023-10-08T06:11:18;1.63;;;1.00;;
4630;SDS011;2328;48.170;11.602;2023-10-08T06:14:04;3.50;;;1.60;;
4630;SDS011;2328;48.170;11.602;2023-10-08T06:16:58;1.20;;;1.07;;
4630;SDS011;2328;48.170;11.602;2023-10-08T06:19:40;5.33;;;1.43;;
4630;SDS011;2328;48.170;11.602;2023-10-08T06:22:10;4.50;;;1.30;;
4630;SDS011;2328;48.170;11.602;2023-10-08T06:24:48;3.20;;;1.23;;
4630;SDS011;2328;48.170;11.602;2023-10-08T06:28:01;2.87;;;1.17;;
4630;SDS011;2328;48.170;11.602;2023-10-08T06:30:40;3.70;;;1.00;;
4630;SDS011;2328;48.170;11.602;2023-10-08T06:33:41;1.90;;;1.00;;
4630;SDS011;2328;48.170;11.602;2023-10-08T06:36:11;3.00;;;1.30;;
4630;SDS011;2328;48.170;11.602;2023-10-08T06:38:44;2.07;;;1.40;;
4630;SDS011;2328;48.170;11.602;2023-10-08T06:41:16;5.60;;;1.50;;
4630;SDS011;2328;48.170;11.602;2023-10-08T06:44:17;3.63;;;1.43;;
4630;SDS011;2328;48.170;11.602;2023-10-08T06:47:03;5.07;;;1.20;;
4630;SDS011;2328;48.170;11.602;2023-10-08T06:49:37;5.43;;;1.70;;
4630;SDS011;2328;48.170;11.602;2023-10-08T06:52:10;2.93;;;1.50;;
4630;SDS011;2328;48.170;11.602;2023-10-08T06:54:40;4.30;;;1.90;;
4630;SDS011;2328;48.170;11.602;2023-10-08T06:57:08;1.57;;;1.20;;
4630;SDS011;2328;48.170;11.602;2023-10-08T06:59:41;2.43;;;1.60;;
4630;SDS011;2328;48.170;11.602;2023-10-08T07:02:26;2.77;;;0.93;;
4630;SDS011;2328;48.170;11.602;2023-10-08T07:05:11;1.80;;;1.50;;
4630;SDS011;2328;48.170;11.602;2023-10-08T07:07:42;3.93;;;1.30;;
4630;SDS011;2328;48.170;11.602;2023-10-08T07:10:11;2.00;;;1.37;;
4630;SDS011;2328;48.170;11.602;2023-10-08T07:12:46;4.87;;;1.37;;
4630;SDS011;2328;48.170;11.602;2023-10-08T07:15:21;12.30;;;1.87;;
4630;SDS011;2328;48.170;11.602;2023-10-08T07:17:52;4.10;;;1.30;;
4630;SDS011;2328;48.170;11.602;2023-10-08T07:20:23;5.10;;;1.20;;
4630;SDS011;2328;48.170;11.602;2023-10-08T07:22:55;2.47;;;1.03;;
4630;SDS011;2328;48.170;11.602;2023-10-08T07:25:39;4.60;;;1.53;;
4630;SDS011;2328;48.170;11.602;2023-10-08T07:28:10;2.30;;;1.17;;
4630;SDS011;2328;48.170;11.602;2023-10-08T07:30:39;3.07;;;1.77;;
4630;SDS011;2328;48.170;11.602;2023-10-08T07:33:10;1.70;;;1.13;;
4630;SDS011;2328;48.170;11.602;2023-10-08T07:35:46;2.30;;;1.70;;
4630;SDS011;2328;48.170;11.602;2023-10-08T07:38:25;3.50;;;1.37;;
4630;SDS011;2328;48.170;11.602;2023-10-08T07:40:57;2.00;;;1.37;;
4630;SDS011;2328;48.170;11.602;2023-10-08T07:43:27;4.00;;;1.23;;
4630;SDS011;2328;48.170;11.602;2023-10-08T07:45:58;3.43;;;1.27;;
4630;SDS011;2328;48.170;11.602;2023-10-08T07:48:27;5.60;;;1.70;;
4630;SDS011;2328;48.170;11.602;2023-10-08T07:50:58;3.10;;;1.30;;
4630;SDS011;2328;48.170;11.602;2023-10-08T07:53:28;1.57;;;1.27;;
4630;SDS011;2328;48.170;11.602;2023-10-08T07:56:04;2.60;;;1.07;;
4630;SDS011;2328;48.170;11.602;2023-10-08T07:58:35;2.50;;;1.13;;
4630;SDS011;2328;48.170;11.602;2023-10-08T08:01:03;5.57;;;1.87;;
4630;SDS011;2328;48.170;11.602;2023-10-08T08:03:33;3.73;;;2.07;;
4630;SDS011;2328;48.170;11.602;2023-10-08T08:06:07;2.77;;;1.33;;
4630;SDS011;2328;48.170;11.602;2023-10-08T08:08:36;3.03;;;1.40;;
4630;SDS011;2328;48.170;11.602;2023-10-08T08:11:06;4.03;;;1.00;;
4630;SDS011;2328;48.170;11.602;2023-10-08T08:13:38;1.70;;;1.00;;
4630;SDS011;2328;48.170;11.602;2023-10-08T08:16:24;4.53;;;1.70;;
4630;SDS011;2328;48.170;11.602;2023-10-08T08:18:55;4.03;;;1.90;;
4630;SDS011;2328;48.170;11.602;2023-10-08T08:21:27;2.60;;;1.27;;
4630;SDS011;2328;48.170;11.602;2023-10-08T08:23:57;4.30;;;1.00;;
4630;SDS011;2328;48.170;11.602;2023-10-08T08:26:37;3.37;;;1.27;;
4630;SDS011;2328;48.170;11.602;2023-10-08T08:29:11;1.17;;;0.87;;
4630;SDS011;2328;48.170;11.602;2023-10-08T08:31:42;2.67;;;1.90;;
4630;SDS011;2328;48.170;11.602;2023-10-08T08:34:12;4.80;;;1.50;;
4630;SDS011;2328;48.170;11.602;2023-10-08T08:36:47;3.63;;;1.37;;
4630;SDS011;2328;48.170;11.602;2023-10-08T08:39:17;3.10;;;1.30;;
4630;SDS011;2328;48.170;11.602;2023-10-08T08:41:59;4.27;;;1.53;;
4630;SDS011;2328;48.170;11.602;2023-10-08T08:44:28;3.87;;;1.43;;
4630;SDS011;2328;48.170;11.602;2023-10-08T08:46:58;3.83;;;1.10;;
4630;SDS011;2328;48.170;11.602;2023-10-08T08:49:31;4.77;;;1.87;;
4630;SDS011;2328;48.170;11.602;2023-10-08T08:52:05;1.93;;;1.70;;
4630;SDS011;2328;48.170;11.602;2023-10-08T08:54:34;2.20;;;1.50;;
4630;SDS011;2328;48.170;11.602;2023-10-08T08:57:03;2.90;;;1.50;;
4630;SDS011;2328;48.170;11.602;2023-10-08T08:59:35;1.73;;;1.37;;
4630;SDS011;2328;48.170;11.602;2023-10-08T09:02:04;2.73;;;1.23;;
4630;SDS011;2328;48.170;11.602;2023-10-08T09:04:34;5.17;;;1.60;;
4630;SDS011;2328;48.170;11.602;2023-10-08T09:07:06;3.10;;;1.47;;
4630;SDS011;2328;48.170;11.602;2023-10-08T09:09:37;8.83;;;1.50;;
4630;SDS011;2328;48.170;11.602;2023-10-08T09:12:07;4.60;;;1.50;;
4630;SDS011;2328;48.170;11.602;2023-10-08T09:14:36;7.37;;;2.00;;
4630;SDS011;2328;48.170;11.602;2023-10-08T09:17:05;2.13;;;1.47;;
4630;SDS011;2328;48.170;11.602;2023-10-08T09:19:35;2.50;;;1.63;;
4630;SDS011;2328;48.170;11.602;2023-10-08T09:22:05;6.80;;;1.10;;
4630;SDS011;2328;48.170;11.602;2023-10-08T09:24:35;2.70;;;1.60;;
4630;SDS011;2328;48.170;11.602;2023-10-08T09:27:05;2.40;;;1.10;;
4630;SDS011;2328;48.170;11.602;2023-10-08T09:29:34;3.73;;;1.20;;
4630;SDS011;2328;48.170;11.602;2023-10-08T09:32:08;5.27;;;1.20;;
4630;SDS011;2328;48.170;11.602;2023-10-08T09:34:36;4.90;;;1.63;;
4630;SDS011;2328;48.170;11.602;2023-10-08T09:37:07;1.67;;;1.30;;
4630;SDS011;2328;48.170;11.602;2023-10-08T09:39:35;6.53;;;1.47;;
4630;SDS011;2328;48.170;11.602;2023-10-08T09:42:05;1.83;;;1.00;;
4630;SDS011;2328;48.170;11.602;2023-10-08T09:44:38;2.00;;;1.10;;
4630;SDS011;2328;48.170;11.602;2023-10-08T09:47:19;6.83;;;1.40;;
4630;SDS011;2328;48.170;11.602;2023-10-08T09:49:53;2.93;;;1.50;;
4630;SDS011;2328;48.170;11.602;2023-10-08T09:52:31;4.23;;;1.57;;
4630;SDS011;2328;48.170;11.602;2023-10-08T09:55:04;5.60;;;1.20;;
4630;SDS011;2328;48.170;11.602;2023-10-08T09:57:36;3.23;;;1.83;;
4630;SDS011;2328;48.170;11.602;2023-10-08T10:00:06;3.50;;;1.50;;
4630;SDS011;2328;48.170;11.602;2023-10-08T10:02:40;2.50;;;1.07;;
4630;SDS011;2328;48.170;11.602;2023-10-08T10:05:10;4.30;;;1.37;;
4630;SDS011;2328;48.170;11.602;2023-10-08T10:07:42;2.40;;;1.53;;
4630;SDS011;2328;48.170;11.602;2023-10-08T10:10:27;4.47;;;1.90;;
4630;SDS011;2328;48.170;11.602;2023-10-08T10:12:59;4.33;;;1.50;;
4630;SDS011;2328;48.170;11.602;2023-10-08T10:15:28;2.30;;;0.97;;
4630;SDS011;2328;48.170;11.602;2023-10-08T10:17:58;3.80;;;1.20;;
4630;SDS011;2328;48.170;11.602;2023-10-08T10:20:38;8.23;;;1.70;;
4630;SDS011;2328;48.170;11.602;2023-10-08T10:26:06;6.70;;;1.00;;
4630;SDS011;2328;48.170;11.602;2023-10-08T10:31:34;11.90;;;1.83;;
4630;SDS011;2328;48.170;11.602;2023-10-08T10:34:04;3.03;;;1.30;;
4630;SDS011;2328;48.170;11.602;2023-10-08T10:36:34;4.10;;;1.20;;
4630;SDS011;2328;48.170;11.602;2023-10-08T10:39:03;2.17;;;1.13;;
4630;SDS011;2328;48.170;11.602;2023-10-08T10:41:44;3.27;;;1.40;;
4630;SDS011;2328;48.170;11.602;2023-10-08T10:44:13;12.10;;;1.77;;
4630;SDS011;2328;48.170;11.602;2023-10-08T10:46:42;3.07;;;1.00;;
4630;SDS011;2328;48.170;11.602;2023-10-08T10:49:18;6.63;;;1.90;;
4630;SDS011;2328;48.170;11.602;2023-10-08T10:51:49;6.40;;;1.93;;
4630;SDS011;2328;48.170;11.602;2023-10-08T10:54:24;2.20;;;1.10;;
4630;SDS011;2328;48.170;11.602;2023-10-08T10:56:53;1.60;;;1.23;;
4630;SDS011;2328;48.170;11.602;2023-10-08T10:59:31;8.30;;;1.60;;
4630;SDS011;2328;48.170;11.602;2023-10-08T11:02:08;3.23;;;1.20;;
4630;SDS011;2328;48.170;11.602;2023-10-08T11:04:47;4.00;;;1.00;;
4630;SDS011;2328;48.170;11.602;2023-10-08T11:07:21;2.07;;;1.67;;
4630;SDS011;2328;48.170;11.602;2023-10-08T11:09:52;2.57;;;1.63;;
4630;SDS011;2328;48.170;11.602;2023-10-08T11:12:23;4.17;;;1.33;;
4630;SDS011;2328;48.170;11.602;2023-10-08T11:15:12;5.63;;;1.37;;
4630;SDS011;2328;48.170;11.602;2023-10-08T11:17:44;3.03;;;1.67;;
4630;SDS011;2328;48.170;11.602;2023-10-08T11:20:26;11.40;;;1.50;;
4630;SDS011;2328;48.170;11.602;2023-10-08T11:22:56;1.27;;;0.77;;
4630;SDS011;2328;48.170;11.602;2023-10-08T11:26:00;4.83;;;1.53;;
4630;SDS011;2328;48.170;11.602;2023-10-08T11:28:33;5.23;;;1.40;;
4630;SDS011;2328;48.170;11.602;2023-10-08T11:31:10;2.43;;;1.70;;
4630;SDS011;2328;48.170;11.602;2023-10-08T11:33:40;3.90;;;1.50;;
4630;SDS011;2328;48.170;11.602;2023-10-08T11:36:20;2.63;;;1.40;;
4630;SDS011;2328;48.170;11.602;2023-10-08T11:38:54;2.63;;;1.53;;
4630;SDS011;2328;48.170;11.602;2023-10-08T11:41:31;4.10;;;1.10;;
4630;SDS011;2328;48.170;11.602;2023-10-08T11:44:18;5.40;;;1.70;;
4630;SDS011;2328;48.170;11.602;2023-10-08T11:46:59;3.07;;;1.20;;
4630;SDS011;2328;48.170;11.602;2023-10-08T11:49:41;2.70;;;1.10;;
4630;SDS011;2328;48.170;11.602;2023-10-08T11:52:17;2.87;;;1.50;;
4630;SDS011;2328;48.170;11.602;2023-10-08T11:54:49;8.37;;;1.60;;
4630;SDS011;2328;48.170;11.602;2023-10-08T11:57:20;3.47;;;1.20;;
4630;SDS011;2328;48.170;11.602;2023-10-08T11:59:57;2.50;;;1.27;;
4630;SDS011;2328;48.170;11.602;2023-10-08T12:02:27;4.10;;;1.37;;
4630;SDS011;2328;48.170;11.602;2023-10-08T12:05:05;2.93;;;1.00;;
4630;SDS011;2328;48.170;11.602;2023-10-08T12:07:34;12.40;;;1.53;;
4630;SDS011;2328;48.170;11.602;2023-10-08T12:10:08;4.70;;;1.47;;
4630;SDS011;2328;48.170;11.602;2023-10-08T12:12:57;4.43;;;1.47;;
4630;SDS011;2328;48.170;11.602;2023-10-08T12:15:38;5.27;;;1.87;;
4630;SDS011;2328;48.170;11.602;2023-10-08T12:21:19;7.40;;;1.63;;
4630;SDS011;2328;48.170;11.602;2023-10-08T12:23:51;5.63;;;2.50;;
4630;SDS011;2328;48.170;11.602;2023-10-08T12:26:21;7.00;;;1.37;;
4630;SDS011;2328;48.170;11.602;2023-10-08T12:28:50;6.70;;;1.97;;
4630;SDS011;2328;48.170;11.602;2023-10-08T12:34:24;3.57;;;1.80;;
4630;SDS011;2328;48.170;11.602;2023-10-08T12:36:57;2.10;;;1.07;;
4630;SDS011;2328;48.170;11.602;2023-10-08T12:39:44;2.53;;;1.37;;
4630;SDS011;2328;48.170;11.602;2023-10-08T12:42:26;5.43;;;1.40;;
4630;SDS011;2328;48.170;11.602;2023-10-08T12:44:57;5.60;;;1.63;;
4630;SDS011;2328;48.170;11.602;2023-10-08T12:47:28;6.67;;;1.73;;
4630;SDS011;2328;48.170;11.602;2023-10-08T12:50:00;7.63;;;1.67;;
4630;SDS011;2328;48.170;11.602;2023-10-08T12:52:34;2.80;;;1.37;;
4630;SDS011;2328;48.170;11.602;2023-10-08T12:55:03;2.97;;;2.40;;
4630;SDS011;2328;48.170;11.602;2023-10-08T12:57:33;4.28;;;1.67;;
4630;SDS011;2328;48.170;11.602;2023-10-08T13:00:05;5.03;;;2.07;;
4630;SDS011;2328;48.170;11.602;2023-10-08T13:02:35;4.43;;;1.60;;
4630;SDS011;2328;48.170;11.602;2023-10-08T13:05:10;5.13;;;1.33;;
4630;SDS011;2328;48.170;11.602;2023-10-08T13:07:46;6.73;;;1.50;;
4630;SDS011;2328;48.170;11.602;2023-10-08T13:10:22;4.20;;;1.47;;
4630;SDS011;2328;48.170;11.602;2023-10-08T13:12:57;4.00;;;1.80;;
4630;SDS011;2328;48.170;11.602;2023-10-08T13:15:35;2.80;;;1.23;;
4630;SDS011;2328;48.170;11.602;2023-10-08T13:18:06;3.83;;;1.23;;
4630;SDS011;2328;48.170;11.602;2023-10-08T13:20:41;7.03;;;1.20;;
4630;SDS011;2328;48.170;11.602;2023-10-08T13:23:11;2.57;;;2.07;;
4630;SDS011;2328;48.170;11.602;2023-10-08T13:25:40;1.83;;;1.00;;
4630;SDS011;2328;48.170;11.602;2023-10-08T13:28:08;2.70;;;1.00;;
4630;SDS011;2328;48.170;11.602;2023-10-08T13:30:38;4.40;;;1.57;;
4630;SDS011;2328;48.170;11.602;2023-10-08T13:33:07;2.77;;;1.10;;
4630;SDS011;2328;48.170;11.602;2023-10-08T13:35:36;1.30;;;1.00;;
4630;SDS011;2328;48.170;11.602;2023-10-08T13:38:07;2.33;;;1.30;;
4630;SDS011;2328;48.170;11.602;2023-10-08T13:40:39;3.00;;;0.70;;
4630;SDS011;2328;48.170;11.602;2023-10-08T13:43:43;2.00;;;1.10;;
4630;SDS011;2328;48.170;11.602;2023-10-08T13:46:19;2.10;;;1.10;;
4630;SDS011;2328;48.170;11.602;2023-10-08T13:48:51;3.20;;;1.00;;
4630;SDS011;2328;48.170;11.602;2023-10-08T13:51:39;9.73;;;1.27;;
4630;SDS011;2328;48.170;11.602;2023-10-08T13:54:12;5.17;;;1.63;;
4630;SDS011;2328;48.170;11.602;2023-10-08T13:56:55;5.10;;;1.30;;
4630;SDS011;2328;48.170;11.602;2023-10-08T13:59:31;6.23;;;1.20;;
4630;SDS011;2328;48.170;11.602;2023-10-08T14:02:15;14.13;;;1.63;;
4630;SDS011;2328;48.170;11.602;2023-10-08T14:04:57;2.97;;;1.10;;
4630;SDS011;2328;48.170;11.602;2023-10-08T14:07:49;4.80;;;1.63;;
4630;SDS011;2328;48.170;11.602;2023-10-08T14:13:32;6.53;;;1.50;;
4630;SDS011;2328;48.170;11.602;2023-10-08T14:16:15;5.13;;;1.90;;
4630;SDS011;2328;48.170;11.602;2023-10-08T14:18:45;8.33;;;1.13;;
4630;SDS011;2328;48.170;11.602;2023-10-08T14:21:34;7.50;;;1.43;;
4630;SDS011;2328;48.170;11.602;2023-10-08T14:24:16;4.10;;;1.43;;
4630;SDS011;2328;48.170;11.602;2023-10-08T14:26:47;3.40;;;1.27;;
4630;SDS011;2328;48.170;11.602;2023-10-08T14:32:10;3.40;;;1.13;;
4630;SDS011;2328;48.170;11.602;2023-10-08T14:34:43;11.17;;;2.03;;
4630;SDS011;2328;48.170;11.602;2023-10-08T14:37:48;2.43;;;1.50;;
4630;SDS011;2328;48.170;11.602;2023-10-08T14:40:47;3.13;;;1.30;;
4630;SDS011;2328;48.170;11.602;2023-10-08T14:43:43;4.57;;;1.47;;
4630;SDS011;2328;48.170;11.602;2023-10-08T14:46:29;7.40;;;1.20;;
4630;SDS011;2328;48.170;11.602;2023-10-08T14:49:14;2.07;;;1.13;;
4630;SDS011;2328;48.170;11.602;2023-10-08T14:51:44;3.27;;;2.50;;
4630;SDS011;2328;48.170;11.602;2023-10-08T15:05:08;2.10;;;1.30;;
4630;SDS011;2328;48.170;11.602;2023-10-08T15:07:56;6.13;;;1.00;;
4630;SDS011;2328;48.170;11.602;2023-10-08T15:14:03;3.50;;;1.40;;
4630;SDS011;2328;48.170;11.602;2023-10-08T15:51:06;8.27;;;1.40;;
4630;SDS011;2328;48.170;11.602;2023-10-08T15:53:35;3.70;;;1.50;;
4630;SDS011;2328;48.170;11.602;2023-10-08T15:56:20;6.10;;;1.53;;
4630;SDS011;2328;48.170;11.602;2023-10-08T15:59:06;2.50;;;0.97;;
4630;SDS011;2328;48.170;11.602;2023-10-08T16:02:02;4.30;;;1.30;;
4630;SDS011;2328;48.170;11.602;2023-10-08T16:05:00;6.30;;;1.60;;
4630;SDS011;2328;48.170;11.602;2023-10-08T16:07:56;4.30;;;1.27;;
4630;SDS011;2328;48.170;11.602;2023-10-08T16:10:54;7.60;;;1.80;;
4630;SDS011;2328;48.170;11.602;2023-10-08T16:16:43;4.27;;;1.77;;
4630;SDS011;2328;48.170;11.602;2023-10-08T16:19:21;2.80;;;1.40;;
4630;SDS011;2328;48.170;11.602;2023-10-08T16:58:30;4.97;;;1.63;;
4630;SDS011;2328;48.170;11.602;2023-10-08T17:51:16;2.60;;;1.70;;
4630;SDS011;2328;48.170;11.602;2023-10-08T17:54:17;8.00;;;1.90;;
4630;SDS011;2328;48.170;11.602;2023-10-08T17:57:13;10.87;;;2.43;;
4630;SDS011;2328;48.170;11.602;2023-10-08T18:00:07;10.70;;;2.27;;
4630;SDS011;2328;48.170;11.602;2023-10-08T18:03:13;2.40;;;2.20;;
4630;SDS011;2328;48.170;11.602;2023-10-08T18:30:38;4.83;;;1.83;;
4630;SDS011;2328;48.170;11.602;2023-10-08T18:33:22;4.63;;;1.90;;
4630;SDS011;2328;48.170;11.602;2023-10-08T18:36:07;4.20;;;2.20;;
4630;SDS011;2328;48.170;11.602;2023-10-08T18:39:08;10.57;;;2.70;;
4630;SDS011;2328;48.170;11.602;2023-10-08T18:42:12;7.80;;;2.60;;
4630;SDS011;2328;48.170;11.602;2023-10-08T18:45:09;7.40;;;2.30;;
4630;SDS011;2328;48.170;11.602;2023-10-08T18:47:55;3.03;;;2.00;;
4630;SDS011;2328;48.170;11.602;2023-10-08T18:50:49;7.80;;;3.00;;
4630;SDS011;2328;48.170;11.602;2023-10-08T18:53:35;5.63;;;2.17;;
4630;SDS011;2328;48.170;11.602;2023-10-08T18:56:49;3.10;;;2.00;;
4630;SDS011;2328;48.170;11.602;2023-10-08T18:59:55;8.80;;;2.40;;
4630;SDS011;2328;48.170;11.602;2023-10-08T19:05:55;8.20;;;2.90;;
4630;SDS011;2328;48.170;11.602;2023-10-08T19:09:14;4.27;;;2.10;;
4630;SDS011;2328;48.170;11.602;2023-10-08T19:12:16;6.10;;;2.40;;
4630;SDS011;2328;48.170;11.602;2023-10-08T19:15:01;4.40;;;2.00;;
4630;SDS011;2328;48.170;11.602;2023-10-08T19:18:01;7.57;;;2.30;;
4630;SDS011;2328;48.170;11.602;2023-10-08T19:20:39;9.17;;;3.10;;
4630;SDS011;2328;48.170;11.602;2023-10-08T20:10:45;5.40;;;2.50;;
4630;SDS011;2328;48.170;11.602;2023-10-08T20:13:15;6.00;;;2.80;;
4630;SDS011;2328;48.170;11.602;2023-10-08T20:18:20;5.47;;;3.10;;
4630;SDS011;2328;48.170;11.602;2023-10-08T20:20:51;4.73;;;2.80;;
4630;SDS011;2328;48.170;11.602;2023-10-08T20:23:20;4.00;;;2.70;;
4630;SDS011;2328;48.170;11.602;2023-10-08T20:25:57;7.77;;;2.90;;
4630;SDS011;2328;48.170;11.602;2023-10-08T20:28:26;9.10;;;3.30;;
4630;SDS011;2328;48.170;11.602;2023-10-08T20:30:55;7.23;;;2.60;;
4630;SDS011;2328;48.170;11.602;2023-10-08T20:33:25;5.10;;;2.57;;
4630;SDS011;2328;48.170;11.602;2023-10-08T20:35:57;4.87;;;2.73;;
4630;SDS011;2328;48.170;11.602;2023-10-08T20:38:27;3.43;;;2.07;;
4630;SDS011;2328;48.170;11.602;2023-10-08T20:41:00;7.27;;;2.90;;
4630;SDS011;2328;48.170;11.602;2023-10-08T20:43:33;7.00;;;2.70;;
4630;SDS011;2328;48.170;11.602;2023-10-08T20:46:01;11.40;;;2.83;;
4630;SDS011;2328;48.170;11.602;2023-10-08T20:48:33;10.03;;;3.27;;
4630;SDS011;2328;48.170;11.602;2023-10-08T20:51:03;5.77;;;2.70;;
4630;SDS011;2328;48.170;11.602;2023-10-08T20:53:33;8.30;;;3.00;;
4630;SDS011;2328;48.170;11.602;2023-10-08T20:56:06;5.87;;;2.70;;
4630;SDS011;2328;48.170;11.602;2023-10-08T20:58:35;7.67;;;3.13;;
4630;SDS011;2328;48.170;11.602;2023-10-08T21:01:04;9.80;;;3.50;;
4630;SDS011;2328;48.170;11.602;2023-10-08T21:03:39;14.70;;;3.03;;
4630;SDS011;2328;48.170;11.602;2023-10-08T21:06:08;5.53;;;2.50;;
4630;SDS011;2328;48.170;11.602;2023-10-08T21:08:40;7.73;;;3.27;;
4630;SDS011;2328;48.170;11.602;2023-10-08T21:11:13;8.93;;;3.13;;
4630;SDS011;2328;48.170;11.602;2023-10-08T21:13:43;4.50;;;2.60;;
4630;SDS011;2328;48.170;11.602;2023-10-08T21:16:12;10.33;;;2.77;;
4630;SDS011;2328;48.170;11.602;2023-10-08T21:18:41;4.00;;;2.63;;
4630;SDS011;2328;48.170;11.602;2023-10-08T21:21:11;7.40;;;2.80;;
4630;SDS011;2328;48.170;11.602;2023-10-08T21:23:41;4.80;;;2.53;;